Time;durP1;ratioP1;P1;durP2;ratioP2;P2;SDS_P1;SDS_P2;PMS_P1;PMS_P2;Temp;Humidity;BMP_temperature;BMP_pressure;BME280_temperature;BME280_humidity;BME280_pressure;Samples;Min_cycle;Max_cycle;Signal;HPM_P1;HPM_P2
2021/03/13 00:00:43;;;;;;;23.67;13.97;;;;;;;0.17;99.72;99210.60;1782604;80;21122;-63
2021/03/13 00:03:13;;;;;;;30.07;15.87;;;;;;;0.23;99.74;99208.51;1784867;80;22929;-64
2021/03/13 00:05:42;;;;;;;27.70;17.73;;;;;;;0.24;99.58;99205.65;1759038;81;21166;-64
2021/03/13 00:08:10;;;;;;;26.87;16.37;;;;;;;0.27;99.62;99209.75;1753049;80;21146;-67
2021/03/13 00:10:38;;;;;;;39.40;20.30;;;;;;;0.36;99.79;99208.06;1749934;82;21147;-64
2021/03/13 00:13:05;;;;;;;32.30;17.33;;;;;;;0.47;99.80;99206.70;1749883;82;21596;-66
2021/03/13 00:15:35;;;;;;;31.53;16.73;;;;;;;0.57;99.84;99208.98;1752295;81;21209;-67
2021/03/13 00:18:03;;;;;;;31.17;17.80;;;;;;;0.67;99.77;99209.43;1755328;81;21020;-65
2021/03/13 00:20:34;;;;;;;24.97;12.97;;;;;;;0.71;99.50;99201.40;1784434;80;21129;-66
2021/03/13 00:23:02;;;;;;;31.83;17.60;;;;;;;0.73;99.26;99201.49;1784322;80;21156;-66
2021/03/13 00:25:30;;;;;;;38.07;17.93;;;;;;;0.73;99.11;99197.53;1784395;80;21191;-67
2021/03/13 00:27:58;;;;;;;39.77;19.63;;;;;;;0.77;99.13;99199.26;1784230;80;21457;-68
2021/03/13 00:30:34;;;;;;;35.43;19.73;;;;;;;0.84;99.15;99202.75;1780188;80;20947;-67
2021/03/13 00:33:12;;;;;;;31.50;17.73;;;;;;;0.93;99.23;99202.06;1753358;81;21113;-65
2021/03/13 00:35:41;;;;;;;29.50;20.40;;;;;;;0.98;99.06;99204.42;1752948;81;21167;-67
2021/03/13 00:38:10;;;;;;;38.83;19.50;;;;;;;1.01;98.94;99201.36;1753340;81;21128;-67
2021/03/13 00:40:39;;;;;;;32.90;18.97;;;;;;;1.06;98.82;99199.44;1753272;81;22141;-67
2021/03/13 00:43:09;;;;;;;36.33;20.80;;;;;;;1.08;98.62;99200.06;1753188;81;21173;-67
2021/03/13 00:45:38;;;;;;;39.37;21.57;;;;;;;1.11;98.40;99199.14;1753879;80;21065;-68
2021/03/13 00:48:06;;;;;;;33.00;17.67;;;;;;;1.15;98.33;99203.56;1784113;80;21138;-68
2021/03/13 00:50:36;;;;;;;31.67;19.47;;;;;;;1.16;98.14;99198.04;1780851;80;21223;-68
2021/03/13 00:53:03;;;;;;;33.47;19.97;;;;;;;1.15;98.00;99194.29;1753178;81;21192;-68
2021/03/13 00:55:31;;;;;;;23.97;15.17;;;;;;;1.21;98.02;99196.11;1779945;80;21157;-69
2021/03/13 00:58:00;;;;;;;26.37;15.63;;;;;;;1.22;97.80;99200.39;1784081;80;21153;-71
2021/03/13 01:00:30;;;;;;;36.00;19.60;;;;;;;1.19;97.50;99202.13;1748485;80;21609;-71
2021/03/13 01:02:57;;;;;;;29.73;14.70;;;;;;;1.15;97.36;99198.26;1757546;80;21133;-70
2021/03/13 01:05:26;;;;;;;32.03;19.83;;;;;;;1.12;97.40;99199.46;1782655;80;21375;-68
2021/03/13 01:07:54;;;;;;;34.47;20.77;;;;;;;1.09;97.41;99205.17;1782396;80;21125;-70
2021/03/13 01:10:28;;;;;;;33.73;20.53;;;;;;;1.08;97.51;99205.36;1782588;80;21181;-69
2021/03/13 01:12:55;;;;;;;37.03;21.70;;;;;;;1.12;97.68;99207.41;1775190;80;27648;-66
2021/03/13 01:15:24;;;;;;;35.80;20.07;;;;;;;1.16;97.60;99206.48;1754688;80;21149;-69
2021/03/13 01:17:52;;;;;;;35.93;21.50;;;;;;;1.19;97.65;99208.75;1784318;80;21344;-68
2021/03/13 01:20:21;;;;;;;45.50;24.80;;;;;;;1.21;97.57;99206.70;1784393;80;21641;-65
2021/03/13 01:22:49;;;;;;;35.90;24.57;;;;;;;1.23;97.68;99209.47;1780520;80;21026;-68
2021/03/13 01:25:17;;;;;;;39.10;24.10;;;;;;;1.31;97.74;99207.95;1753165;81;20974;-70
2021/03/13 01:27:46;;;;;;;36.10;23.07;;;;;;;1.39;97.80;99209.57;1753186;81;21118;-68
2021/03/13 01:30:17;;;;;;;40.27;25.37;;;;;;;1.46;97.69;99217.53;1778978;80;21241;-69
2021/03/13 01:32:44;;;;;;;35.83;19.73;;;;;;;1.49;97.64;99220.59;1783783;80;21193;-71
2021/03/13 01:35:15;;;;;;;43.80;26.97;;;;;;;1.54;97.61;99219.98;1781157;80;21169;-72
2021/03/13 01:37:42;;;;;;;42.60;25.33;;;;;;;1.56;97.40;99218.77;1753195;81;21603;-75
2021/03/13 01:40:16;;;;;;;48.73;27.77;;;;;;;1.58;97.21;99223.87;1752945;81;21149;-73
2021/03/13 01:42:46;;;;;;;42.57;24.93;;;;;;;1.60;97.23;99230.59;1753211;81;22257;-72
2021/03/13 01:45:17;;;;;;;41.57;27.90;;;;;;;1.63;97.17;99234.15;1753134;81;21050;-65
2021/03/13 01:47:45;;;;;;;46.90;26.57;;;;;;;1.67;97.12;99238.56;1779489;80;21161;-72
2021/03/13 01:50:17;;;;;;;40.47;26.87;;;;;;;1.69;97.04;99243.12;1782323;80;21193;-68
2021/03/13 01:52:48;;;;;;;41.37;29.93;;;;;;;1.70;96.94;99246.09;1757794;80;21224;-70
2021/03/13 01:55:15;;;;;;;44.03;27.13;;;;;;;1.71;96.87;99241.10;1716657;82;21445;-72
2021/03/13 01:57:43;;;;;;;42.90;26.17;;;;;;;1.70;96.83;99243.44;1752963;80;21145;-68
2021/03/13 02:00:18;;;;;;;38.33;25.93;;;;;;;1.71;96.94;99255.17;1754727;80;21157;-68
2021/03/13 02:02:48;;;;;;;39.50;26.37;;;;;;;1.71;97.00;99259.66;1757430;80;21173;-68
2021/03/13 02:05:27;;;;;;;44.17;26.07;;;;;;;1.73;97.17;99265.55;1752987;81;21176;-69
2021/03/13 02:08:26;;;;;;;41.63;25.97;;;;;;;1.76;97.15;99271.80;1751131;81;21356;-69
2021/03/13 02:11:06;;;;;;;40.67;26.10;;;;;;;1.78;97.07;99269.73;1748939;82;21141;-69
2021/03/13 02:14:13;;;;;;;45.73;29.00;;;;;;;1.75;96.92;99274.95;1766997;80;21147;-69
2021/03/13 02:16:53;;;;;;;32.00;22.63;;;;;;;1.75;96.98;99275.45;1779068;80;21046;-68
2021/03/13 02:20:01;;;;;;;44.10;27.13;;;;;;;1.79;97.08;99275.86;1779844;80;21128;-69
2021/03/13 02:22:34;;;;;;;37.27;24.57;;;;;;;1.82;97.14;99274.96;1779872;80;21376;-70
2021/03/13 02:25:09;;;;;;;41.00;29.15;;;;;;;1.86;97.07;99279.34;1779983;80;21137;-69
2021/03/13 02:27:52;;;;;;;41.23;26.70;;;;;;;1.87;97.05;99287.61;1755699;80;20983;-69
2021/03/13 02:30:26;;;;;;;46.73;30.83;;;;;;;1.88;96.96;99283.91;1889157;76;22731;-69
2021/03/13 02:33:20;;;;;;;45.03;24.70;;;;;;;1.81;96.93;99298.52;1773026;80;21057;-70
2021/03/13 02:36:00;;;;;;;45.10;30.37;;;;;;;1.85;97.08;99295.76;1847005;76;22673;-69
2021/03/13 02:38:36;;;;;;;49.93;33.53;;;;;;;1.78;97.25;99298.90;1816974;79;21639;-69
2021/03/13 02:41:20;;;;;;;44.70;30.37;;;;;;;1.84;97.69;99295.95;1816340;79;21246;-70
2021/03/13 02:43:52;;;;;;;51.13;31.53;;;;;;;1.87;97.82;99302.98;1785434;79;20983;-71
2021/03/13 02:46:22;;;;;;;45.87;28.03;;;;;;;1.88;97.79;99308.59;1784805;80;21019;-70
2021/03/13 02:48:50;;;;;;;55.90;35.50;;;;;;;1.89;97.82;99301.46;1784805;80;21038;-69
2021/03/13 02:51:20;;;;;;;49.97;33.70;;;;;;;1.88;97.88;99301.97;1761946;79;21011;-70
2021/03/13 02:53:48;;;;;;;48.03;32.40;;;;;;;1.90;97.88;99301.27;1813995;78;22573;-71
2021/03/13 02:56:16;;;;;;;46.43;29.90;;;;;;;1.92;98.02;99300.53;1762566;79;21014;-70
2021/03/13 02:58:46;;;;;;;44.73;30.47;;;;;;;1.98;98.28;99304.21;1785020;80;21740;-70
2021/03/13 03:01:13;;;;;;;54.33;32.63;;;;;;;2.03;98.31;99299.11;1784928;80;21017;-70
2021/03/13 03:03:41;;;;;;;38.20;26.13;;;;;;;2.03;98.25;99298.61;1797405;79;21173;-71
2021/03/13 03:06:18;;;;;;;49.07;33.23;;;;;;;2.11;98.32;99305.02;1889168;76;22127;-69
2021/03/13 03:08:48;;;;;;;49.50;33.13;;;;;;;2.07;98.18;99299.83;1860057;77;20995;-70
2021/03/13 03:11:22;;;;;;;45.93;29.70;;;;;;;2.10;98.24;99294.64;1855599;77;21660;-71
2021/03/13 03:13:51;;;;;;;49.77;29.90;;;;;;;2.13;98.23;99289.73;1820346;77;21019;-70
2021/03/13 03:16:19;;;;;;;50.63;34.73;;;;;;;2.15;98.22;99289.03;1756856;80;21022;-70
2021/03/13 03:18:51;;;;;;;38.33;27.13;;;;;;;2.17;98.28;99286.15;1787480;80;21051;-69
2021/03/13 03:21:20;;;;;;;42.83;27.73;;;;;;;2.22;98.33;99290.84;1781884;80;21121;-71
2021/03/13 03:23:49;;;;;;;45.87;31.57;;;;;;;2.23;98.26;99293.30;1785113;80;21376;-71
2021/03/13 03:26:18;;;;;;;41.10;27.20;;;;;;;2.22;98.28;99289.00;1785021;80;21043;-71
2021/03/13 03:28:46;;;;;;;38.07;24.27;;;;;;;2.25;98.30;99289.12;1783464;80;21141;-71
2021/03/13 03:31:16;;;;;;;44.67;31.40;;;;;;;2.23;98.20;99287.98;1786245;80;21157;-70
2021/03/13 03:33:45;;;;;;;48.10;31.47;;;;;;;2.23;98.34;99284.01;1771931;80;21128;-70
2021/03/13 03:36:13;;;;;;;37.10;25.53;;;;;;;2.27;98.45;99289.20;1829014;77;21881;-70
2021/03/13 03:38:41;;;;;;;43.07;29.57;;;;;;;2.32;98.37;99288.59;1825366;78;21193;-70
2021/03/13 03:41:11;;;;;;;43.50;31.93;;;;;;;2.33;98.23;99284.92;1783101;78;21212;-71
2021/03/13 03:43:47;;;;;;;42.93;30.73;;;;;;;2.33;98.13;99281.75;1756347;81;21796;-70
2021/03/13 03:46:17;;;;;;;42.97;30.00;;;;;;;2.34;98.10;99284.72;1784176;78;21160;-70
2021/03/13 03:48:45;;;;;;;45.33;31.70;;;;;;;2.33;98.02;99282.26;1734959;81;22409;-70
2021/03/13 03:51:14;;;;;;;42.20;30.30;;;;;;;2.30;97.95;99279.53;1809023;78;21217;-72
2021/03/13 03:53:48;;;;;;;44.17;29.23;;;;;;;2.30;97.99;99283.50;1752857;81;21042;-71
2021/03/13 03:56:22;;;;;;;34.70;26.67;;;;;;;2.32;97.93;99280.62;1730688;81;21211;-70
2021/03/13 03:58:52;;;;;;;43.97;29.20;;;;;;;2.32;98.03;99282.77;1758354;81;21158;-72
2021/03/13 04:01:22;;;;;;;40.53;28.40;;;;;;;2.35;98.16;99285.00;1781187;80;22340;-70
2021/03/13 04:03:54;;;;;;;36.13;25.70;;;;;;;2.38;98.14;99288.59;1742341;81;21644;-71
2021/03/13 04:06:22;;;;;;;48.07;30.53;;;;;;;2.38;97.97;99292.56;1792315;78;21568;-72
2021/03/13 04:08:53;;;;;;;44.93;30.77;;;;;;;2.35;97.76;99300.13;1780845;80;21127;-71
2021/03/13 04:11:22;;;;;;;42.83;30.43;;;;;;;2.34;97.71;99303.80;1780366;80;21152;-71
2021/03/13 04:13:52;;;;;;;38.20;27.03;;;;;;;2.34;97.71;99320.54;1760972;81;21364;-69
2021/03/13 04:16:20;;;;;;;37.93;27.60;;;;;;;2.32;97.62;99326.55;1760481;81;21062;-71
2021/03/13 04:18:48;;;;;;;44.30;30.60;;;;;;;2.23;97.34;99337.06;1751436;81;20955;-72
2021/03/13 04:21:15;;;;;;;41.87;29.13;;;;;;;2.14;97.33;99336.46;1703793;81;21237;-71
2021/03/13 04:23:46;;;;;;;43.90;26.53;;;;;;;2.06;97.43;99344.60;1689265;83;21281;-71
2021/03/13 04:26:17;;;;;;;49.07;31.77;;;;;;;2.02;97.85;99351.84;1673348;84;21423;-71
2021/03/13 04:28:45;;;;;;;47.67;30.27;;;;;;;1.97;98.09;99330.42;1719186;83;21167;-69
2021/03/13 04:31:13;;;;;;;42.33;26.13;;;;;;;1.97;98.45;99331.23;1700243;83;21593;-70
2021/03/13 04:33:40;;;;;;;40.13;26.90;;;;;;;2.00;98.79;99324.73;1699818;84;21147;-69
2021/03/13 04:36:09;;;;;;;38.83;27.00;;;;;;;2.01;98.95;99326.37;1653138;84;21140;-71
2021/03/13 04:38:38;;;;;;;40.90;27.93;;;;;;;2.03;99.03;99335.73;1712505;83;21819;-70
2021/03/13 04:41:06;;;;;;;41.80;28.23;;;;;;;2.03;99.07;99336.25;1688837;83;21171;-73
2021/03/13 04:43:33;;;;;;;36.93;25.57;;;;;;;2.03;99.05;99341.55;1723319;82;21148;-70
2021/03/13 04:46:01;;;;;;;37.33;26.87;;;;;;;2.05;99.15;99354.11;1721522;82;21176;-70
2021/03/13 04:48:32;;;;;;;28.57;21.20;;;;;;;2.06;99.30;99357.86;1726867;83;21645;-70
2021/03/13 04:51:01;;;;;;;37.33;27.10;;;;;;;2.09;99.55;99352.67;1705390;82;21360;-70
2021/03/13 04:53:29;;;;;;;30.50;22.30;;;;;;;2.10;99.54;99356.97;1698080;83;21606;-70
2021/03/13 04:55:56;;;;;;;41.10;26.57;;;;;;;2.10;99.59;99351.16;1697848;84;21637;-70
2021/03/13 04:58:24;;;;;;;35.30;25.37;;;;;;;2.08;99.64;99352.37;1697784;84;21184;-70
2021/03/13 05:00:54;;;;;;;40.37;25.47;;;;;;;2.08;99.72;99357.67;1718289;83;21197;-71
2021/03/13 05:03:23;;;;;;;42.90;27.63;;;;;;;2.07;99.88;99359.50;1723989;83;21191;-69
2021/03/13 05:05:51;;;;;;;30.37;22.83;;;;;;;2.10;100.00;99359.63;1725911;82;21196;-70
2021/03/13 05:08:20;;;;;;;30.90;20.87;;;;;;;2.12;100.00;99360.22;1726837;82;21749;-71
2021/03/13 05:10:47;;;;;;;37.57;24.80;;;;;;;2.13;100.00;99368.48;1706330;83;21618;-70
2021/03/13 05:13:15;;;;;;;39.73;28.27;;;;;;;2.15;100.00;99363.30;1715344;83;21157;-70
2021/03/13 05:15:45;;;;;;;37.93;25.20;;;;;;;2.17;100.00;99367.87;1697878;84;21485;-72
2021/03/13 05:18:12;;;;;;;37.27;25.37;;;;;;;2.19;100.00;99371.16;1697767;84;21165;-72
2021/03/13 05:20:41;;;;;;;36.67;24.30;;;;;;;2.24;100.00;99369.22;1719097;83;21184;-70
2021/03/13 05:23:08;;;;;;;30.90;23.13;;;;;;;2.28;100.00;99377.06;1726123;83;21205;-70
2021/03/13 05:25:36;;;;;;;26.23;18.97;;;;;;;2.31;100.00;99382.46;1726875;83;21188;-70
2021/03/13 05:28:04;;;;;;;38.80;27.37;;;;;;;2.33;100.00;99382.58;1726831;82;21376;-70
2021/03/13 05:30:31;;;;;;;37.17;24.10;;;;;;;2.32;100.00;99389.41;1706626;83;21037;-71
2021/03/13 05:32:59;;;;;;;27.63;19.07;;;;;;;2.31;100.00;99389.91;1699085;83;21086;-70
2021/03/13 05:35:26;;;;;;;37.83;25.07;;;;;;;2.32;100.00;99392.06;1701070;83;21115;-70
2021/03/13 05:37:54;;;;;;;34.10;23.40;;;;;;;2.38;100.00;99387.27;1708641;83;21193;-68
2021/03/13 05:40:24;;;;;;;28.37;18.90;;;;;;;2.43;100.00;99396.77;1726490;83;21470;-69
2021/03/13 05:42:51;;;;;;;27.13;19.23;;;;;;;2.47;100.00;99401.97;1725936;83;21176;-70
2021/03/13 05:45:20;;;;;;;35.90;24.50;;;;;;;2.46;100.00;99407.78;1726857;82;21172;-68
2021/03/13 05:47:49;;;;;;;34.07;23.27;;;;;;;2.48;100.00;99407.59;1698919;83;21149;-70
2021/03/13 05:50:17;;;;;;;40.03;27.17;;;;;;;2.49;100.00;99415.87;1697751;84;21137;-71
2021/03/13 05:52:48;;;;;;;37.30;25.10;;;;;;;2.51;100.00;99418.61;1697812;84;21368;-69
2021/03/13 05:55:17;;;;;;;36.70;23.37;;;;;;;2.58;100.00;99420.77;1679045;83;21147;-69
2021/03/13 05:57:44;;;;;;;27.20;20.10;;;;;;;2.68;100.00;99421.67;1712712;83;21196;-68
2021/03/13 06:00:13;;;;;;;31.53;21.13;;;;;;;2.79;100.00;99424.20;1697947;83;21653;-67
2021/03/13 06:02:40;;;;;;;39.37;26.90;;;;;;;2.84;100.00;99436.34;1698351;83;21586;-68
2021/03/13 06:05:09;;;;;;;34.43;23.37;;;;;;;2.87;100.00;99434.63;1722860;82;21562;-69
2021/03/13 06:07:36;;;;;;;28.37;20.27;;;;;;;2.93;100.00;99441.23;1726087;83;21168;-70
2021/03/13 06:10:07;;;;;;;23.97;19.00;;;;;;;3.01;100.00;99442.38;1726990;83;21176;-69
2021/03/13 06:12:35;;;;;;;36.97;24.00;;;;;;;3.09;100.00;99451.95;1711807;83;21113;-69
2021/03/13 06:15:03;;;;;;;32.00;23.70;;;;;;;3.14;100.00;99468.09;1697834;84;21193;-71
2021/03/13 06:17:55;;;;;;;34.73;23.07;;;;;;;3.18;100.00;99459.18;1721361;83;21821;-69
2021/03/13 06:20:36;;;;;;;32.93;19.90;;;;;;;3.21;100.00;99469.41;1711342;83;21228;-71
2021/03/13 06:23:12;;;;;;;29.53;21.17;;;;;;;3.21;100.00;99473.40;1718267;82;21183;-71
2021/03/13 06:25:41;;;;;;;30.30;20.17;;;;;;;3.22;100.00;99482.98;1697744;83;21120;-68
2021/03/13 06:28:19;;;;;;;29.93;22.17;;;;;;;3.21;100.00;99476.88;1701388;83;21193;-67
2021/03/13 06:30:49;;;;;;;29.37;21.87;;;;;;;3.24;100.00;99481.77;1727019;82;22113;-68
2021/03/13 06:33:30;;;;;;;31.77;21.97;;;;;;;3.28;100.00;99482.16;1726685;83;21178;-67
2021/03/13 06:36:05;;;;;;;28.50;19.87;;;;;;;3.37;100.00;99491.54;1726873;83;21161;-68
2021/03/13 06:38:36;;;;;;;29.82;20.68;;;;;;;3.44;100.00;99495.02;1725996;83;21648;-69
2021/03/13 06:41:22;;;;;;;36.15;24.05;;;;;;;3.47;99.89;99497.24;1726905;83;21153;-68
2021/03/13 06:43:52;;;;;;;28.80;21.17;;;;;;;3.49;99.86;99497.86;1713356;83;21372;-68
2021/03/13 06:46:21;;;;;;;29.02;21.73;;;;;;;3.53;99.58;99511.04;1697722;84;21639;-66
2021/03/13 06:48:57;;;;;;;24.20;18.32;;;;;;;3.55;99.48;99498.87;1706166;83;21121;-66
2021/03/13 06:54:16;;;;;;;29.30;20.77;;;;;;;3.62;98.79;99494.34;1883216;76;22826;-68
2021/03/13 06:56:54;;;;;;;29.52;23.30;;;;;;;3.56;98.52;99505.80;1782330;80;21614;-68
2021/03/13 06:59:32;;;;;;;35.17;21.90;;;;;;;3.56;98.48;99508.46;1838518;77;21372;-68
2021/03/13 07:02:13;;;;;;;31.27;22.40;;;;;;;3.59;98.48;99514.71;1829853;77;21070;-69
2021/03/13 07:04:44;;;;;;;28.70;20.82;;;;;;;3.60;98.16;99507.05;1820925;78;21046;-69
2021/03/13 07:07:29;;;;;;;27.48;21.57;;;;;;;3.60;97.92;99507.83;1829989;77;20979;-72
2021/03/13 07:09:58;;;;;;;24.52;18.55;;;;;;;3.63;97.81;99501.30;1820139;77;21042;-70
2021/03/13 07:12:41;;;;;;;33.42;22.52;;;;;;;3.64;97.73;99496.28;1820915;78;22669;-69
2021/03/13 07:15:26;;;;;;;33.25;25.52;;;;;;;3.61;97.21;99487.38;1821043;78;21034;-72
2021/03/13 07:17:58;;;;;;;28.30;21.70;;;;;;;3.61;97.31;99483.39;1848753;77;21003;-72
2021/03/13 07:20:30;;;;;;;22.50;17.15;;;;;;;3.70;97.57;99488.78;1826021;77;21058;-75
2021/03/13 07:23:01;;;;;;;38.45;24.45;;;;;;;3.85;97.76;99495.98;1840696;77;21123;-70
2021/03/13 07:25:28;;;;;;;29.52;18.98;;;;;;;3.96;97.73;99491.34;1820856;78;21371;-69
2021/03/13 07:27:59;;;;;;;38.10;24.37;;;;;;;4.03;96.51;99496.64;1820895;78;21191;-71
2021/03/13 07:30:29;;;;;;;30.68;23.67;;;;;;;4.03;96.23;99491.33;1821130;77;20983;-69
2021/03/13 07:33:05;;;;;;;40.00;23.57;;;;;;;4.11;96.56;99498.54;1820867;78;21070;-69
2021/03/13 07:35:42;;;;;;;36.40;24.37;;;;;;;4.19;96.28;99494.80;1820187;78;21137;-69
2021/03/13 07:38:12;;;;;;;40.10;23.50;;;;;;;4.20;95.01;99496.44;1821737;77;21369;-66
2021/03/13 07:40:42;;;;;;;34.92;22.17;;;;;;;4.25;95.17;99496.11;1848657;77;21185;-71
2021/03/13 07:43:13;;;;;;;29.65;21.20;;;;;;;4.35;95.32;99494.31;1820900;78;21124;-71
2021/03/13 07:45:40;;;;;;;31.93;24.55;;;;;;;4.43;94.79;99494.04;1834598;77;21117;-71
2021/03/13 07:48:10;;;;;;;36.63;24.15;;;;;;;4.46;94.38;99488.81;1852471;77;21137;-69
2021/03/13 07:50:40;;;;;;;34.55;21.57;;;;;;;4.54;94.27;99491.21;1854392;77;21567;-71
2021/03/13 07:53:08;;;;;;;36.63;24.52;;;;;;;4.60;93.28;99492.51;1851069;77;21185;-71
2021/03/13 07:55:35;;;;;;;36.63;26.07;;;;;;;4.55;92.58;99491.52;1795159;77;21058;-69
2021/03/13 07:58:03;;;;;;;32.78;20.82;;;;;;;4.57;92.80;99480.94;1836056;77;21157;-70
2021/03/13 08:00:46;;;;;;;35.00;24.60;;;;;;;4.65;92.98;99485.20;1849820;77;21562;-73
2021/03/13 08:03:37;;;;;;;37.58;24.20;;;;;;;4.70;92.59;99491.48;1853398;77;22133;-70
2021/03/13 08:06:07;;;;;;;33.58;25.10;;;;;;;4.78;92.40;99481.09;1813319;79;21363;-73
2021/03/13 08:08:48;;;;;;;35.08;23.10;;;;;;;4.82;92.07;99480.95;1820128;77;20971;-73
2021/03/13 08:11:19;;;;;;;36.50;26.07;;;;;;;4.90;91.99;99478.52;1835945;77;21168;-72
2021/03/13 08:13:57;;;;;;;46.42;28.32;;;;;;;4.88;90.86;99480.09;1825138;77;21122;-71
2021/03/13 08:16:39;;;;;;;46.83;30.35;;;;;;;4.91;91.37;99484.16;1821836;77;21365;-71
2021/03/13 08:19:26;;;;;;;38.48;25.55;;;;;;;4.96;90.85;99484.31;1784699;79;21166;-70
2021/03/13 08:22:17;;;;;;;32.13;21.73;;;;;;;5.04;91.32;99489.36;1796728;79;21616;-69
2021/03/13 08:24:51;;;;;;;55.63;30.75;;;;;;;5.12;91.18;99483.26;1729852;79;21180;-69
2021/03/13 08:27:40;;;;;;;65.65;31.00;;;;;;;5.13;90.08;99481.41;1803063;79;20987;-69
2021/03/13 08:30:21;;;;;;;46.80;27.25;;;;;;;5.18;90.06;99478.36;1820355;78;21571;-71
2021/03/13 08:33:06;;;;;;;47.03;29.07;;;;;;;5.26;89.10;99483.42;1820160;78;21122;-69
2021/03/13 08:35:48;;;;;;;44.70;27.40;;;;;;;5.32;88.49;99483.06;1760996;80;21071;-70
2021/03/13 08:38:20;;;;;;;41.55;26.93;;;;;;;5.27;87.09;99482.36;1820649;77;21598;-71
2021/03/13 08:40:52;;;;;;;40.17;26.15;;;;;;;5.17;87.10;99479.41;1847850;77;21608;-72
2021/03/13 08:43:35;;;;;;;43.13;28.55;;;;;;;5.09;87.35;99482.86;1853815;77;21435;-72
2021/03/13 08:46:03;;;;;;;41.60;29.15;;;;;;;5.06;87.66;99490.79;1853588;77;21046;-72
2021/03/13 08:48:59;;;;;;;35.98;25.40;;;;;;;5.10;87.94;99487.16;1848539;77;20975;-71
2021/03/13 08:51:27;;;;;;;49.20;30.27;;;;;;;5.12;88.12;99487.25;1820002;78;21669;-72
2021/03/13 08:53:54;;;;;;;49.13;35.45;;;;;;;5.15;88.24;99485.98;1820110;77;21197;-75
2021/03/13 08:56:44;;;;;;;51.02;31.35;;;;;;;5.26;88.91;99482.61;1820025;78;21647;-71
2021/03/13 08:59:17;;;;;;;48.52;32.17;;;;;;;5.35;88.35;99481.80;1827380;77;21137;-79
2021/03/13 09:02:02;;;;;;;56.75;36.42;;;;;;;5.45;88.49;99492.25;1806515;78;21142;-71
2021/03/13 09:04:31;;;;;;;55.40;33.35;;;;;;;5.48;87.02;99490.98;1820219;78;21071;-72
2021/03/13 09:06:59;;;;;;;45.92;31.68;;;;;;;5.51;86.79;99487.38;1822414;77;21563;-71
2021/03/13 09:09:29;;;;;;;44.65;31.15;;;;;;;5.49;85.86;99495.28;1836829;77;22143;-72
2021/03/13 09:11:58;;;;;;;38.40;29.05;;;;;;;5.46;86.18;99499.73;1820116;78;21197;-71
2021/03/13 09:14:26;;;;;;;40.70;30.05;;;;;;;5.49;86.40;99493.95;1820204;77;21199;-73
2021/03/13 09:16:54;;;;;;;37.65;26.27;;;;;;;5.54;86.55;99497.59;1820563;77;21173;-72
2021/03/13 09:19:24;;;;;;;41.77;28.75;;;;;;;5.58;85.91;99490.77;1821362;77;21146;-74
2021/03/13 09:21:54;;;;;;;52.98;35.13;;;;;;;5.59;86.21;99489.73;1820725;77;21357;-72
2021/03/13 09:24:27;;;;;;;42.60;28.98;;;;;;;5.65;86.37;99501.38;1819999;78;21117;-72
2021/03/13 09:26:58;;;;;;;44.63;30.15;;;;;;;5.65;85.07;99499.53;1777397;78;21662;-73
2021/03/13 09:29:38;;;;;;;43.42;30.27;;;;;;;5.60;84.73;99495.38;1824848;77;21129;-73
2021/03/13 09:32:10;;;;;;;42.50;28.90;;;;;;;5.60;85.12;99491.37;1829065;77;21157;-70
2021/03/13 09:34:45;;;;;;;41.77;31.07;;;;;;;5.67;85.17;99499.28;1835668;77;22246;-71
2021/03/13 09:37:25;;;;;;;39.95;29.42;;;;;;;5.77;85.70;99492.91;1830768;77;21239;-70
2021/03/13 09:40:01;;;;;;;46.23;30.32;;;;;;;5.91;85.85;99490.92;1827819;77;21631;-78
2021/03/13 09:42:31;;;;;;;39.15;29.25;;;;;;;6.04;85.41;99497.45;1820935;78;21173;-73
2021/03/13 09:45:14;;;;;;;46.13;31.87;;;;;;;6.08;84.62;99495.44;1761979;80;21191;-72
2021/03/13 09:47:49;;;;;;;33.83;24.47;;;;;;;6.08;83.49;99493.28;1853603;77;22720;-72
2021/03/13 09:50:20;;;;;;;28.87;20.12;;;;;;;6.11;83.77;99490.16;1797112;77;21464;-71
2021/03/13 09:52:49;;;;;;;33.70;26.10;;;;;;;6.13;82.87;99497.43;1844862;77;21177;-74
2021/03/13 09:55:20;;;;;;;34.35;26.10;;;;;;;6.25;82.44;99498.80;1803289;78;21176;-71
2021/03/13 09:57:55;;;;;;;32.13;24.23;;;;;;;6.25;82.44;99498.80;1791220;78;21069;-70
2021/03/13 10:00:29;;;;;;;29.92;21.20;;;;;;;6.37;81.77;99504.50;1794232;78;21200;-70
2021/03/13 10:03:01;;;;;;;36.15;27.48;;;;;;;6.37;81.77;99504.50;1790787;80;21192;-72
2021/03/13 10:05:31;;;;;;;32.45;23.07;;;;;;;6.40;81.52;99505.88;1792223;78;21141;-74
2021/03/13 10:08:05;;;;;;;39.67;27.17;;;;;;;6.47;81.28;99496.75;1790844;80;21199;-71
2021/03/13 10:10:36;;;;;;;33.55;23.73;;;;;;;6.45;80.19;99500.16;1817154;78;21053;-71
2021/03/13 10:13:06;;;;;;;37.95;27.48;;;;;;;6.42;79.89;99493.95;1790870;80;22284;-71
2021/03/13 10:15:37;;;;;;;33.78;25.12;;;;;;;6.41;79.92;99504.33;1797481;78;21160;-70
2021/03/13 10:18:20;;;;;;;33.90;26.23;;;;;;;6.38;79.04;99500.76;1807515;78;21431;-72
2021/03/13 10:20:53;;;;;;;36.95;25.97;;;;;;;6.31;79.44;99504.06;1823355;78;20991;-71
2021/03/13 10:23:29;;;;;;;34.27;26.37;;;;;;;6.31;79.27;99493.89;1791080;80;21152;-73
2021/03/13 10:26:13;;;;;;;41.10;27.70;;;;;;;6.34;79.94;99492.09;1776754;80;21371;-74
2021/03/13 10:28:47;;;;;;;34.35;24.27;;;;;;;6.38;79.93;99491.41;1752847;81;21011;-71
2021/03/13 10:31:19;;;;;;;39.78;26.85;;;;;;;6.47;79.91;99487.92;1765380;80;21035;-70
2021/03/13 10:33:47;;;;;;;29.80;21.95;;;;;;;6.47;79.45;99495.41;1743453;81;21630;-70
2021/03/13 10:36:17;;;;;;;31.85;23.55;;;;;;;6.51;79.56;99493.91;1746547;81;21217;-69
2021/03/13 10:38:51;;;;;;;36.30;26.87;;;;;;;6.58;79.34;99495.12;1756015;81;21528;-73
2021/03/13 10:41:23;;;;;;;32.03;23.98;;;;;;;6.54;78.54;99497.45;1734229;82;21169;-69
2021/03/13 10:43:52;;;;;;;36.05;26.20;;;;;;;6.51;78.58;99504.59;1735008;82;21657;-71
2021/03/13 10:46:24;;;;;;;30.35;23.35;;;;;;;6.47;78.99;99499.42;1762560;81;21145;-71
2021/03/13 10:48:56;;;;;;;36.30;25.85;;;;;;;6.54;79.13;99501.45;1745876;81;21121;-71
2021/03/13 10:51:42;;;;;;;40.43;28.25;;;;;;;6.54;78.43;99504.65;1765453;81;22210;-70
2021/03/13 10:54:28;;;;;;;37.42;25.92;;;;;;;6.51;77.85;99504.59;1771003;80;21177;-71
2021/03/13 10:57:07;;;;;;;34.83;26.45;;;;;;;6.46;77.82;99519.67;1796469;79;21641;-69
2021/03/13 10:59:37;;;;;;;34.92;24.57;;;;;;;6.39;77.46;99506.41;1768830;79;21022;-73
2021/03/13 11:02:04;;;;;;;39.15;28.45;;;;;;;6.40;77.82;99506.70;1796551;79;21101;-68
2021/03/13 11:04:33;;;;;;;40.85;28.17;;;;;;;6.43;77.56;99506.23;1790038;79;21251;-67
2021/03/13 11:07:01;;;;;;;42.13;29.15;;;;;;;6.38;77.33;99507.98;1765705;81;21166;-67
2021/03/13 11:09:29;;;;;;;41.25;29.25;;;;;;;6.42;77.59;99505.15;1765703;80;21181;-67
2021/03/13 11:11:58;;;;;;;34.80;26.07;;;;;;;6.41;76.86;99495.50;1765440;79;21198;-68
2021/03/13 11:14:25;;;;;;;37.38;26.25;;;;;;;6.40;76.93;99497.87;1772549;79;21165;-67
2021/03/13 11:16:53;;;;;;;34.92;26.48;;;;;;;6.49;77.39;99495.98;1769935;79;21202;-67
2021/03/13 11:19:24;;;;;;;31.12;24.27;;;;;;;6.60;76.90;99496.25;1782030;79;21188;-67
2021/03/13 11:21:50;;;;;;;34.27;24.75;;;;;;;6.66;76.47;99489.48;1765926;79;21185;-63
2021/03/13 11:24:19;;;;;;;36.42;24.45;;;;;;;6.76;75.93;99492.38;1770662;79;21154;-66
2021/03/13 11:26:47;;;;;;;33.00;24.15;;;;;;;6.83;75.63;99486.41;1764852;81;21210;-66
2021/03/13 11:29:14;;;;;;;36.20;25.00;;;;;;;6.89;75.04;99487.36;1783238;79;21205;-65
2021/03/13 11:31:41;;;;;;;27.35;22.05;;;;;;;6.90;75.40;99482.31;1779558;79;21889;-67
2021/03/13 11:34:09;;;;;;;34.58;21.65;;;;;;;6.97;75.52;99487.83;1796342;79;21626;-67
2021/03/13 11:36:36;;;;;;;25.97;20.50;;;;;;;7.06;74.95;99489.63;1796217;79;21172;-68
2021/03/13 11:39:07;;;;;;;29.57;21.75;;;;;;;7.11;74.96;99486.26;1783008;79;21124;-66
2021/03/13 11:41:33;;;;;;;28.45;22.48;;;;;;;7.11;74.57;99479.05;1765792;79;22291;-69
2021/03/13 11:44:01;;;;;;;32.48;22.95;;;;;;;7.18;74.30;99476.27;1764827;79;21182;-70
2021/03/13 11:46:28;;;;;;;25.70;20.37;;;;;;;7.34;74.07;99477.70;1796958;78;21126;-67
2021/03/13 11:48:56;;;;;;;32.40;23.05;;;;;;;7.39;72.24;99468.97;1820429;78;21197;-62